Time;durP1;ratioP1;P1;durP2;ratioP2;P2;SDS_P1;SDS_P2;PMS_P1;PMS_P2;Temp;Humidity;BMP_temperature;BMP_pressure;BME280_temperature;BME280_humidity;BME280_pressure;Samples;Min_cycle;Max_cycle;Signal;HPM_P1;HPM_P2
2023/07/10 00:01:00;;;;;;;7.70;6.97;;;23.10;99.90;;;;;;2091346;28;20380;-69
2023/07/10 00:02:01;;;;;;;6.90;5.05;;;23.10;99.90;;;;;;2091298;28;20416;-69
2023/07/10 00:03:01;;;;;;;7.32;5.35;;;23.10;99.90;;;;;;2093399;28;20020;-69
2023/07/10 00:04:02;;;;;;;6.47;5.85;;;23.10;99.90;;;;;;2090229;28;20024;-69
2023/07/10 00:05:11;;;;;;;6.20;5.60;;;23.10;99.90;;;;;;2094112;28;20796;-69
2023/07/10 00:06:14;;;;;;;6.88;5.40;;;23.00;99.90;;;;;;2093277;28;20032;-69
2023/07/10 00:07:15;;;;;;;6.30;5.75;;;23.00;99.90;;;;;;2090528;28;20024;-69
2023/07/10 00:08:15;;;;;;;8.80;6.38;;;23.00;99.90;;;;;;2092004;28;20029;-69
2023/07/10 00:09:16;;;;;;;8.40;5.20;;;23.00;99.90;;;;;;2092884;28;20056;-69
2023/07/10 00:10:17;;;;;;;7.13;6.45;;;23.00;99.90;;;;;;2090270;28;20448;-71
2023/07/10 00:11:21;;;;;;;7.60;6.35;;;23.00;99.90;;;;;;2091859;28;20028;-69
2023/07/10 00:12:22;;;;;;;10.32;7.00;;;23.00;99.90;;;;;;2089200;28;20367;-69
2023/07/10 00:13:23;;;;;;;8.10;6.78;;;23.00;99.90;;;;;;2092615;28;20065;-69
2023/07/10 00:14:24;;;;;;;10.75;6.65;;;23.00;99.90;;;;;;2092451;28;20115;-69
2023/07/10 00:15:28;;;;;;;8.15;7.22;;;23.00;99.90;;;;;;2090855;28;20028;-69
2023/07/10 00:16:28;;;;;;;8.32;7.53;;;23.00;99.90;;;;;;2091254;28;20043;-69
2023/07/10 00:17:29;;;;;;;7.80;5.38;;;23.00;99.90;;;;;;2093256;28;20698;-69
2023/07/10 00:18:29;;;;;;;7.93;5.88;;;23.00;99.90;;;;;;2090024;28;20029;-69
2023/07/10 00:19:30;;;;;;;7.32;6.28;;;23.00;99.90;;;;;;2091457;28;20025;-69
2023/07/10 00:20:31;;;;;;;9.23;6.50;;;23.00;99.90;;;;;;2090781;28;20032;-69
2023/07/10 00:21:31;;;;;;;11.25;7.20;;;22.90;99.90;;;;;;2091225;28;20024;-69
2023/07/10 00:22:32;;;;;;;7.88;5.95;;;22.90;99.90;;;;;;2091640;28;20064;-69
2023/07/10 00:23:32;;;;;;;14.18;6.55;;;22.90;99.90;;;;;;2090510;28;20051;-69
2023/07/10 00:24:33;;;;;;;10.98;7.05;;;22.90;99.90;;;;;;2092395;28;20427;-69
2023/07/10 00:25:34;;;;;;;7.38;6.68;;;22.90;99.90;;;;;;2091585;28;20020;-69
2023/07/10 00:26:37;;;;;;;8.98;6.38;;;22.90;99.90;;;;;;2092676;28;20444;-69
2023/07/10 00:27:38;;;;;;;7.97;6.65;;;22.90;99.90;;;;;;2094363;28;20033;-69
2023/07/10 00:28:38;;;;;;;10.88;6.78;;;22.90;99.90;;;;;;2092659;28;20488;-69
2023/07/10 00:29:39;;;;;;;7.90;7.10;;;22.90;99.90;;;;;;2093287;28;20021;-69
2023/07/10 00:30:40;;;;;;;10.18;7.32;;;22.90;99.90;;;;;;2091888;28;20013;-69
2023/07/10 00:31:41;;;;;;;6.72;6.13;;;22.90;99.90;;;;;;2091364;28;20027;-69
2023/07/10 00:32:43;;;;;;;6.88;6.13;;;22.90;99.90;;;;;;2092613;28;21512;-69
2023/07/10 00:33:47;;;;;;;6.80;5.57;;;22.90;99.90;;;;;;2092063;28;20021;-69
2023/07/10 00:34:47;;;;;;;7.70;6.47;;;22.90;99.90;;;;;;2091069;28;20494;-69
2023/07/10 00:35:48;;;;;;;9.70;6.88;;;22.80;99.90;;;;;;2091190;28;20028;-69
2023/07/10 00:36:51;;;;;;;7.88;7.03;;;22.90;99.90;;;;;;2091304;28;20063;-69
2023/07/10 00:38:01;;;;;;;10.40;6.85;;;22.90;99.90;;;;;;2089620;28;20040;-69
2023/07/10 00:39:16;;;;;;;6.90;6.18;;;22.80;99.90;;;;;;2091824;28;20024;-69
2023/07/10 00:40:20;;;;;;;10.88;6.65;;;22.80;99.90;;;;;;2090763;28;20048;-69
2023/07/10 00:41:29;;;;;;;10.23;6.97;;;22.80;99.90;;;;;;2093377;28;20043;-69
2023/07/10 00:42:29;;;;;;;10.25;6.45;;;22.80;99.90;;;;;;2090921;28;20032;-69
2023/07/10 00:43:47;;;;;;;8.98;6.50;;;22.80;99.90;;;;;;2092539;28;20117;-69
2023/07/10 00:44:56;;;;;;;9.30;6.97;;;22.80;99.90;;;;;;2091582;28;20028;-69
2023/07/10 00:46:04;;;;;;;9.15;7.13;;;22.80;99.90;;;;;;2090412;28;20024;-69
2023/07/10 00:47:19;;;;;;;6.80;6.20;;;22.80;99.90;;;;;;2091891;28;20050;-69
2023/07/10 00:48:41;;;;;;;6.22;5.63;;;22.80;99.90;;;;;;2091996;28;20044;-69
2023/07/10 00:50:01;;;;;;;8.35;5.80;;;22.70;99.90;;;;;;2091814;28;20488;-69
2023/07/10 00:51:09;;;;;;;6.53;5.93;;;22.70;99.90;;;;;;2089671;28;20029;-69
2023/07/10 00:52:26;;;;;;;9.10;6.63;;;22.70;99.90;;;;;;2090436;28;20027;-69
2023/07/10 00:53:34;;;;;;;7.05;6.38;;;22.70;99.90;;;;;;2091865;28;20029;-69
2023/07/10 00:54:37;;;;;;;8.20;5.50;;;22.70;99.90;;;;;;2093310;28;20035;-69
2023/07/10 00:55:39;;;;;;;10.13;7.97;;;22.70;99.90;;;;;;2091360;28;20346;-69
2023/07/10 00:56:41;;;;;;;8.77;7.22;;;22.70;99.90;;;;;;2091712;28;20091;-69
2023/07/10 00:57:44;;;;;;;10.63;8.70;;;22.70;99.90;;;;;;2092261;28;20099;-69
2023/07/10 00:58:48;;;;;;;13.40;10.18;;;22.70;99.90;;;;;;2091961;28;20035;-69
2023/07/10 00:59:50;;;;;;;10.00;8.23;;;22.70;99.90;;;;;;2093727;28;20828;-69
2023/07/10 01:01:00;;;;;;;8.35;6.30;;;22.70;99.90;;;;;;2092017;28;20059;-69
2023/07/10 01:02:06;;;;;;;11.07;8.73;;;22.70;99.90;;;;;;2091496;28;20111;-69
2023/07/10 01:03:13;;;;;;;10.07;9.07;;;22.70;99.90;;;;;;2091497;28;20028;-69
2023/07/10 01:04:13;;;;;;;11.10;8.88;;;22.70;99.90;;;;;;2092170;28;20144;-69
2023/07/10 01:05:17;;;;;;;11.10;8.77;;;22.70;99.90;;;;;;2094574;28;20468;-69
2023/07/10 01:06:26;;;;;;;9.02;8.13;;;22.70;99.90;;;;;;2092492;28;20435;-69
2023/07/10 01:07:32;;;;;;;12.45;9.80;;;22.80;99.90;;;;;;2090451;28;20052;-69
2023/07/10 01:08:34;;;;;;;13.60;8.80;;;22.70;99.90;;;;;;2090481;28;20033;-69
2023/07/10 01:09:35;;;;;;;13.18;10.80;;;22.80;99.90;;;;;;2093187;28;20115;-69
2023/07/10 01:10:36;;;;;;;11.27;9.95;;;22.80;99.90;;;;;;2090507;28;20070;-69
2023/07/10 01:11:37;;;;;;;10.07;9.07;;;22.80;99.90;;;;;;2092522;28;20079;-69
2023/07/10 01:12:39;;;;;;;14.07;11.38;;;22.80;99.90;;;;;;2089892;28;20339;-69
2023/07/10 01:13:42;;;;;;;13.18;10.93;;;22.80;99.90;;;;;;2090315;28;20033;-69
2023/07/10 01:14:43;;;;;;;12.48;10.90;;;22.80;99.90;;;;;;2091566;28;20550;-69
2023/07/10 01:15:44;;;;;;;11.95;10.10;;;22.80;99.90;;;;;;2091899;28;20086;-69
2023/07/10 01:16:44;;;;;;;11.32;10.13;;;22.80;99.90;;;;;;2090554;28;20024;-69
2023/07/10 01:17:46;;;;;;;10.50;9.50;;;22.70;99.90;;;;;;2089837;28;20029;-69
2023/07/10 01:18:48;;;;;;;11.38;9.50;;;22.70;99.90;;;;;;2090037;28;20087;-69
2023/07/10 01:19:49;;;;;;;10.30;8.38;;;22.70;99.90;;;;;;2092054;28;20069;-69
2023/07/10 01:21:12;;;;;;;15.38;9.68;;;22.70;99.90;;;;;;2094450;28;20020;-69
2023/07/10 01:22:15;;;;;;;14.10;9.65;;;22.70;99.90;;;;;;2092566;28;20091;-69
2023/07/10 01:23:18;;;;;;;10.60;9.23;;;22.70;99.90;;;;;;2091618;28;20020;-69
2023/07/10 01:24:18;;;;;;;10.18;8.93;;;22.70;99.90;;;;;;2090094;28;20037;-69
2023/07/10 01:25:19;;;;;;;11.90;9.40;;;22.70;99.90;;;;;;2092432;28;20029;-69
2023/07/10 01:26:20;;;;;;;12.02;9.68;;;22.70;99.90;;;;;;2093769;28;20024;-69
2023/07/10 01:27:22;;;;;;;9.43;8.52;;;22.70;99.90;;;;;;2092704;28;20052;-69
2023/07/10 01:28:23;;;;;;;9.27;8.32;;;22.70;99.90;;;;;;2090710;28;20021;-69
2023/07/10 01:29:25;;;;;;;10.88;9.63;;;22.70;99.90;;;;;;2092637;28;20042;-69
2023/07/10 01:30:33;;;;;;;7.53;6.90;;;22.70;99.90;;;;;;2094051;28;20050;-71
2023/07/10 01:31:34;;;;;;;8.68;7.78;;;22.80;99.90;;;;;;2094545;28;20024;-69
2023/07/10 01:32:34;;;;;;;11.65;8.38;;;22.70;99.90;;;;;;2093378;28;20057;-69
2023/07/10 01:33:39;;;;;;;11.95;9.07;;;22.70;99.90;;;;;;2093299;28;20083;-69
2023/07/10 01:34:48;;;;;;;10.45;8.88;;;22.80;99.90;;;;;;2093395;28;20199;-69
2023/07/10 01:35:51;;;;;;;12.00;9.35;;;22.80;99.90;;;;;;2093829;28;20128;-69
2023/07/10 01:36:53;;;;;;;10.63;9.02;;;22.80;99.90;;;;;;2094247;28;20508;-69
2023/07/10 01:37:53;;;;;;;14.00;10.52;;;22.80;99.90;;;;;;2095403;28;20021;-69
2023/07/10 01:39:02;;;;;;;16.17;9.23;;;22.80;99.90;;;;;;2095080;28;20107;-69
2023/07/10 01:40:03;;;;;;;10.73;9.50;;;22.80;99.90;;;;;;2092589;28;20102;-69
2023/07/10 01:41:24;;;;;;;11.80;9.32;;;22.80;99.90;;;;;;2093598;28;20032;-69
2023/07/10 01:42:24;;;;;;;11.30;8.85;;;22.80;99.90;;;;;;2095100;28;20023;-69
2023/07/10 01:43:25;;;;;;;13.23;9.82;;;22.80;99.90;;;;;;2093287;28;20027;-69
2023/07/10 01:44:32;;;;;;;10.00;8.85;;;22.80;99.90;;;;;;2093486;28;20070;-69
2023/07/10 01:45:42;;;;;;;11.43;8.00;;;22.80;99.90;;;;;;2096211;28;20434;-69
2023/07/10 01:46:42;;;;;;;10.73;9.63;;;22.80;99.90;;;;;;2093414;28;20028;-69
2023/07/10 01:47:43;;;;;;;11.55;9.82;;;22.80;99.90;;;;;;2093794;28;20919;-69
2023/07/10 01:48:44;;;;;;;11.27;9.27;;;22.80;99.90;;;;;;2095106;28;20552;-69
2023/07/10 01:49:50;;;;;;;11.23;8.68;;;22.80;99.90;;;;;;2093567;28;20071;-69
2023/07/10 01:50:52;;;;;;;10.77;9.27;;;22.80;99.90;;;;;;2092331;28;20029;-69
2023/07/10 01:51:54;;;;;;;10.38;9.50;;;22.80;99.90;;;;;;2094788;28;20111;-69
2023/07/10 01:52:55;;;;;;;11.23;9.65;;;22.80;99.90;;;;;;2093027;28;20021;-69
2023/07/10 01:54:02;;;;;;;11.25;9.75;;;22.80;99.90;;;;;;2094932;28;20048;-69
2023/07/10 01:55:03;;;;;;;11.00;9.02;;;22.80;99.90;;;;;;2095579;28;20059;-69
2023/07/10 01:56:04;;;;;;;12.30;10.35;;;22.80;99.90;;;;;;2093608;28;20199;-69
2023/07/10 01:57:06;;;;;;;9.85;8.77;;;22.80;99.90;;;;;;2093552;28;20074;-69
2023/07/10 01:58:06;;;;;;;10.15;9.15;;;22.80;99.90;;;;;;2095199;28;20027;-69
2023/07/10 01:59:07;;;;;;;8.80;7.97;;;22.80;99.90;;;;;;2093133;28;20029;-69
2023/07/10 02:00:09;;;;;;;12.60;9.90;;;22.80;99.90;;;;;;2093656;28;20024;-69
2023/07/10 02:01:09;;;;;;;12.75;10.48;;;22.80;99.90;;;;;;2094877;28;20044;-69
2023/07/10 02:02:10;;;;;;;12.23;10.63;;;22.80;99.90;;;;;;2092155;28;20024;-69
2023/07/10 02:03:10;;;;;;;12.70;10.25;;;22.80;99.90;;;;;;2094670;28;20017;-69
2023/07/10 02:04:11;;;;;;;12.07;9.85;;;22.80;99.90;;;;;;2096072;28;20024;-69
2023/07/10 02:05:12;;;;;;;12.45;11.13;;;22.80;99.90;;;;;;2095595;28;20017;-69
2023/07/10 02:06:12;;;;;;;14.07;10.43;;;22.70;99.90;;;;;;2094691;28;20034;-69
2023/07/10 02:07:13;;;;;;;10.98;9.43;;;22.70;99.90;;;;;;2094940;28;20029;-69
2023/07/10 02:08:13;;;;;;;11.30;9.35;;;22.70;99.90;;;;;;2095392;28;20558;-69
2023/07/10 02:09:14;;;;;;;12.07;10.63;;;22.70;99.90;;;;;;2095012;28;20024;-69
2023/07/10 02:10:15;;;;;;;12.45;11.15;;;22.70;99.90;;;;;;2094088;28;20025;-69
2023/07/10 02:11:15;;;;;;;9.65;8.02;;;22.70;99.90;;;;;;2095226;28;20116;-69
2023/07/10 02:12:16;;;;;;;10.75;9.25;;;22.70;99.90;;;;;;2094197;28;20025;-69
2023/07/10 02:13:16;;;;;;;11.77;10.57;;;22.70;99.90;;;;;;2093540;28;20021;-69
2023/07/10 02:14:17;;;;;;;12.55;11.02;;;22.70;99.90;;;;;;2095435;28;20020;-69
2023/07/10 02:15:18;;;;;;;8.95;8.05;;;22.70;99.90;;;;;;2093725;28;20021;-69
2023/07/10 02:16:18;;;;;;;10.25;9.20;;;22.70;99.90;;;;;;2094259;28;20021;-69
2023/07/10 02:17:19;;;;;;;11.20;9.20;;;22.70;99.90;;;;;;2094180;28;20028;-69
2023/07/10 02:18:19;;;;;;;9.32;8.48;;;22.70;99.90;;;;;;2093812;28;20032;-69
2023/07/10 02:19:20;;;;;;;9.40;8.50;;;22.70;99.90;;;;;;2093011;28;20487;-69
2023/07/10 02:20:21;;;;;;;9.90;8.45;;;22.70;99.90;;;;;;2094008;28;20326;-69
2023/07/10 02:21:22;;;;;;;13.95;10.50;;;22.70;99.90;;;;;;2095804;28;20025;-69
2023/07/10 02:22:22;;;;;;;11.80;9.00;;;22.70;99.90;;;;;;2094085;28;20562;-69
2023/07/10 02:23:23;;;;;;;9.45;8.35;;;22.70;99.90;;;;;;2094551;28;20036;-69
2023/07/10 02:24:23;;;;;;;11.15;9.63;;;22.70;99.90;;;;;;2093456;28;20017;-69
2023/07/10 02:25:24;;;;;;;9.80;8.85;;;22.70;99.90;;;;;;2094951;28;20028;-69
2023/07/10 02:26:26;;;;;;;11.82;9.77;;;22.70;99.90;;;;;;2094778;28;20489;-69
2023/07/10 02:27:27;;;;;;;11.20;9.77;;;22.70;99.90;;;;;;2094385;28;20545;-69
2023/07/10 02:28:27;;;;;;;13.40;9.73;;;22.70;99.90;;;;;;2094284;28;20431;-69
2023/07/10 02:29:28;;;;;;;7.80;7.10;;;22.70;99.90;;;;;;2094698;28;20526;-69
2023/07/10 02:30:28;;;;;;;10.75;9.65;;;22.70;99.90;;;;;;2095195;28;20052;-69
2023/07/10 02:31:29;;;;;;;9.48;8.57;;;22.70;99.90;;;;;;2094697;28;20503;-69
2023/07/10 02:32:30;;;;;;;10.63;9.43;;;22.70;99.90;;;;;;2095078;28;20021;-69
2023/07/10 02:33:30;;;;;;;10.43;9.43;;;22.70;99.90;;;;;;2095846;28;20370;-69
2023/07/10 02:34:31;;;;;;;13.63;9.70;;;22.70;99.90;;;;;;2093602;28;20028;-69
2023/07/10 02:35:31;;;;;;;10.60;9.55;;;22.70;99.90;;;;;;2094451;28;20017;-69
2023/07/10 02:36:33;;;;;;;8.95;6.43;;;22.70;99.90;;;;;;2093404;28;20016;-69
2023/07/10 02:37:34;;;;;;;9.27;8.43;;;22.70;99.90;;;;;;2093325;28;20666;-69
2023/07/10 02:38:34;;;;;;;8.00;7.18;;;22.70;99.90;;;;;;2094146;28;20427;-69
2023/07/10 02:39:35;;;;;;;11.43;9.20;;;22.60;99.90;;;;;;2093472;28;20025;-69
2023/07/10 02:40:35;;;;;;;12.55;9.80;;;22.70;99.90;;;;;;2093811;28;20043;-69
2023/07/10 02:41:36;;;;;;;8.73;7.78;;;22.70;99.90;;;;;;2091629;28;20044;-69
2023/07/10 02:42:36;;;;;;;13.27;9.82;;;22.70;99.90;;;;;;2091923;28;20512;-69
2023/07/10 02:43:37;;;;;;;9.85;8.88;;;22.70;99.90;;;;;;2091420;28;20021;-69
2023/07/10 02:44:37;;;;;;;10.35;9.38;;;22.60;99.90;;;;;;2091972;28;20033;-69
2023/07/10 02:45:38;;;;;;;9.60;8.55;;;22.60;99.90;;;;;;2091231;28;20155;-69
2023/07/10 02:46:38;;;;;;;10.02;8.10;;;22.60;99.90;;;;;;2091560;28;20111;-69
2023/07/10 02:47:39;;;;;;;10.50;8.90;;;22.60;99.90;;;;;;2091236;28;20507;-69
2023/07/10 02:48:39;;;;;;;10.68;9.57;;;22.60;99.90;;;;;;2093424;28;20031;-69
2023/07/10 02:49:40;;;;;;;10.32;9.27;;;22.60;99.90;;;;;;2092426;28;20615;-69
2023/07/10 02:50:42;;;;;;;10.95;9.00;;;22.60;99.90;;;;;;2092482;28;20017;-69
2023/07/10 02:51:43;;;;;;;11.00;8.68;;;22.60;99.90;;;;;;2092440;28;20021;-69
2023/07/10 02:52:43;;;;;;;13.07;6.47;;;22.60;99.90;;;;;;2091691;28;20024;-69
2023/07/10 02:53:44;;;;;;;11.68;10.48;;;22.60;99.90;;;;;;2094353;28;20021;-69
2023/07/10 02:54:44;;;;;;;10.73;7.78;;;22.60;99.90;;;;;;2094564;28;20020;-69
2023/07/10 02:55:45;;;;;;;11.52;10.32;;;22.60;99.90;;;;;;2091907;28;20387;-69
2023/07/10 02:56:46;;;;;;;11.40;10.10;;;22.60;99.90;;;;;;2092258;28;20103;-69
2023/07/10 02:57:46;;;;;;;10.32;8.05;;;22.60;99.90;;;;;;2091124;28;20032;-69
2023/07/10 02:58:50;;;;;;;8.15;7.05;;;22.60;99.90;;;;;;2092787;28;20044;-69
2023/07/10 02:59:51;;;;;;;11.68;9.10;;;22.60;99.90;;;;;;2091051;28;20029;-69
2023/07/10 03:00:56;;;;;;;9.57;8.13;;;22.60;99.90;;;;;;2092256;28;20794;-69
2023/07/10 03:01:59;;;;;;;9.65;8.43;;;22.60;99.90;;;;;;2093076;28;20461;-69
2023/07/10 03:03:00;;;;;;;10.18;8.75;;;22.60;99.90;;;;;;2091360;28;20369;-69
2023/07/10 03:04:00;;;;;;;11.48;10.35;;;22.60;99.90;;;;;;2091803;28;20132;-69
2023/07/10 03:05:02;;;;;;;12.82;10.38;;;22.60;99.90;;;;;;2093094;28;20063;-69
2023/07/10 03:06:02;;;;;;;9.15;7.15;;;22.60;99.90;;;;;;2092839;28;20059;-69
2023/07/10 03:07:03;;;;;;;11.30;10.20;;;22.60;99.90;;;;;;2093407;28;20024;-69
2023/07/10 03:08:04;;;;;;;9.88;7.57;;;22.60;99.90;;;;;;2092355;28;20032;-69
2023/07/10 03:09:04;;;;;;;8.88;7.35;;;22.60;99.90;;;;;;2093978;28;20021;-69
2023/07/10 03:10:06;;;;;;;10.73;9.52;;;22.60;99.90;;;;;;2093171;28;20047;-69
2023/07/10 03:11:10;;;;;;;9.77;8.80;;;22.60;99.90;;;;;;2091219;28;20021;-69
2023/07/10 03:12:10;;;;;;;10.45;9.38;;;22.60;99.90;;;;;;2091644;28;20029;-69
2023/07/10 03:13:11;;;;;;;13.27;8.43;;;22.50;99.90;;;;;;2091758;28;20016;-69
2023/07/10 03:14:11;;;;;;;10.68;9.13;;;22.60;99.90;;;;;;2091885;28;20754;-69
2023/07/10 03:15:13;;;;;;;10.68;9.77;;;22.50;99.90;;;;;;2092962;28;20043;-69
2023/07/10 03:16:14;;;;;;;9.80;8.77;;;22.60;99.90;;;;;;2091137;28;20103;-69
2023/07/10 03:17:16;;;;;;;12.55;9.20;;;22.50;99.90;;;;;;2090683;28;20496;-69
2023/07/10 03:18:16;;;;;;;10.00;8.82;;;22.60;99.90;;;;;;2092168;28;20024;-69
2023/07/10 03:19:17;;;;;;;8.98;8.07;;;22.60;99.90;;;;;;2092792;28;20056;-69
2023/07/10 03:20:17;;;;;;;10.07;8.90;;;22.60;99.90;;;;;;2094324;28;20922;-69
2023/07/10 03:21:18;;;;;;;11.27;9.40;;;22.60;99.90;;;;;;2093444;28;20025;-69
2023/07/10 03:22:19;;;;;;;12.57;8.73;;;22.60;99.90;;;;;;2092799;28;20056;-69
2023/07/10 03:23:20;;;;;;;11.25;8.82;;;22.60;99.90;;;;;;2091882;28;20541;-69
2023/07/10 03:24:20;;;;;;;15.38;10.40;;;22.60;99.90;;;;;;2090570;28;20378;-69
2023/07/10 03:25:21;;;;;;;10.05;8.82;;;22.60;99.90;;;;;;2093573;28;20057;-69
2023/07/10 03:26:21;;;;;;;11.65;9.25;;;22.60;99.90;;;;;;2091781;28;20564;-69
2023/07/10 03:27:23;;;;;;;14.13;10.82;;;22.60;99.90;;;;;;2092415;28;20021;-69
2023/07/10 03:28:23;;;;;;;14.65;11.93;;;22.60;99.90;;;;;;2091545;28;20664;-69
2023/07/10 03:29:24;;;;;;;12.70;11.38;;;22.60;99.90;;;;;;2091037;28;20397;-69
2023/07/10 03:30:25;;;;;;;14.20;10.75;;;22.60;99.90;;;;;;2091954;28;20013;-69
2023/07/10 03:31:25;;;;;;;16.85;11.65;;;22.60;99.90;;;;;;2091746;28;20020;-69
2023/07/10 03:32:26;;;;;;;15.52;10.40;;;22.60;99.90;;;;;;2093289;28;20020;-69
2023/07/10 03:33:26;;;;;;;12.32;11.15;;;22.60;99.90;;;;;;2091406;28;20021;-69
2023/07/10 03:34:27;;;;;;;12.85;11.52;;;22.50;99.90;;;;;;2099586;28;20074;-69
2023/07/10 03:35:27;;;;;;;12.77;10.13;;;22.50;99.90;;;;;;2098264;28;20013;-69
2023/07/10 03:36:28;;;;;;;12.95;11.05;;;22.50;99.90;;;;;;2092673;28;20021;-69
2023/07/10 03:37:29;;;;;;;13.40;11.48;;;22.50;99.90;;;;;;2093343;28;20029;-69
2023/07/10 03:38:30;;;;;;;13.23;11.68;;;22.50;99.90;;;;;;2092099;28;20021;-69
2023/07/10 03:39:31;;;;;;;13.93;12.63;;;22.50;99.90;;;;;;2092633;28;20021;-69
2023/07/10 03:40:31;;;;;;;16.30;11.85;;;22.40;99.90;;;;;;2091979;28;20354;-69
2023/07/10 03:41:33;;;;;;;11.07;9.82;;;22.40;99.90;;;;;;2092150;28;20024;-69
2023/07/10 03:42:33;;;;;;;13.25;10.00;;;22.40;99.90;;;;;;2092214;28;20025;-69
2023/07/10 03:43:34;;;;;;;15.20;12.15;;;22.40;99.90;;;;;;2091536;28;20035;-69
2023/07/10 03:44:34;;;;;;;15.55;12.20;;;22.40;99.90;;;;;;2094167;28;20021;-69
2023/07/10 03:45:35;;;;;;;13.77;12.38;;;22.40;99.90;;;;;;2091207;28;20017;-69
2023/07/10 03:46:36;;;;;;;13.93;12.52;;;22.40;99.90;;;;;;2090929;28;20419;-69
2023/07/10 03:47:36;;;;;;;16.50;13.13;;;22.40;99.90;;;;;;2092255;28;20506;-69
2023/07/10 03:48:37;;;;;;;15.93;13.65;;;22.40;99.90;;;;;;2094295;28;20384;-69
2023/07/10 03:49:38;;;;;;;15.60;14.10;;;22.40;99.90;;;;;;2089547;28;20195;-69
2023/07/10 03:50:38;;;;;;;16.48;13.80;;;22.30;99.90;;;;;;2091700;28;20389;-69
2023/07/10 03:51:39;;;;;;;15.77;13.70;;;22.30;99.90;;;;;;2091565;28;20057;-69
2023/07/10 03:52:39;;;;;;;18.02;15.45;;;22.30;99.90;;;;;;2091870;28;20025;-69
2023/07/10 03:53:40;;;;;;;16.42;14.77;;;22.30;99.90;;;;;;2091428;28;20115;-69
2023/07/10 03:54:41;;;;;;;16.20;14.35;;;22.30;99.90;;;;;;2095302;28;20035;-69
2023/07/10 03:55:52;;;;;;;13.30;11.95;;;22.30;99.90;;;;;;2092627;28;20507;-69
2023/07/10 03:56:53;;;;;;;14.85;13.40;;;22.30;99.90;;;;;;2092267;28;20896;-69
2023/07/10 03:57:53;;;;;;;15.98;14.35;;;22.30;99.90;;;;;;2092169;28;20388;-71
2023/07/10 03:58:54;;;;;;;15.10;12.55;;;22.30;99.90;;;;;;2092972;28;20056;-69
2023/07/10 03:59:55;;;;;;;15.32;13.93;;;22.30;99.90;;;;;;2091401;28;20132;-69
2023/07/10 04:00:57;;;;;;;18.52;15.10;;;22.30;99.90;;;;;;2092309;28;20439;-70
2023/07/10 04:01:58;;;;;;;14.63;13.13;;;22.30;99.90;;;;;;2093339;28;20078;-71
2023/07/10 04:02:58;;;;;;;16.58;13.15;;;22.30;99.90;;;;;;2093008;28;20029;-70
2023/07/10 04:03:59;;;;;;;14.10;12.73;;;22.30;99.90;;;;;;2092078;28;20474;-69
2023/07/10 04:04:59;;;;;;;15.07;13.57;;;22.30;99.90;;;;;;2092346;28;20029;-69
2023/07/10 04:06:01;;;;;;;15.93;14.32;;;22.30;99.90;;;;;;2091109;28;20029;-71
2023/07/10 04:07:01;;;;;;;16.40;13.43;;;22.30;99.90;;;;;;2090814;28;20025;-71
2023/07/10 04:08:02;;;;;;;15.95;14.23;;;22.30;99.90;;;;;;2090543;28;20032;-71
2023/07/10 04:09:02;;;;;;;16.02;13.98;;;22.30;99.90;;;;;;2092650;28;20480;-71
2023/07/10 04:10:03;;;;;;;16.55;14.30;;;22.30;99.90;;;;;;2091737;28;20020;-71
2023/07/10 04:11:12;;;;;;;14.98;12.80;;;22.30;99.90;;;;;;2091195;28;20017;-71
2023/07/10 04:12:12;;;;;;;17.05;14.23;;;22.30;99.90;;;;;;2092634;28;20115;-71
2023/07/10 04:13:13;;;;;;;11.73;9.52;;;22.30;99.90;;;;;;2091745;28;20023;-70
2023/07/10 04:14:13;;;;;;;17.95;14.25;;;22.30;99.90;;;;;;2092305;28;20028;-70
2023/07/10 04:15:14;;;;;;;16.50;14.50;;;22.30;99.90;;;;;;2093874;28;20042;-70
2023/07/10 04:16:19;;;;;;;16.98;15.18;;;22.30;99.90;;;;;;2091227;28;20017;-70
2023/07/10 04:17:20;;;;;;;16.88;14.57;;;22.30;99.90;;;;;;2092178;28;20028;-70
2023/07/10 04:18:21;;;;;;;17.85;15.98;;;22.30;99.90;;;;;;2093065;28;20115;-71
2023/07/10 04:19:21;;;;;;;18.17;16.27;;;22.30;99.90;;;;;;2092896;28;20028;-71
2023/07/10 04:20:22;;;;;;;16.73;15.02;;;22.30;99.90;;;;;;2092961;28;20033;-71
2023/07/10 04:21:31;;;;;;;16.08;14.57;;;22.30;99.90;;;;;;2092968;28;20021;-71
2023/07/10 04:22:31;;;;;;;17.33;15.57;;;22.30;99.90;;;;;;2093553;28;20377;-71
2023/07/10 04:23:32;;;;;;;19.13;16.92;;;22.20;99.90;;;;;;2093593;28;20051;-71
2023/07/10 04:24:33;;;;;;;16.73;14.80;;;22.20;99.90;;;;;;2091161;28;20032;-71
2023/07/10 04:25:36;;;;;;;19.02;15.38;;;22.20;99.90;;;;;;2092200;28;20024;-71
2023/07/10 04:26:36;;;;;;;16.73;14.73;;;22.20;99.90;;;;;;2092343;28;20020;-71
2023/07/10 04:27:37;;;;;;;16.73;15.10;;;22.20;99.90;;;;;;2091938;28;20111;-71
2023/07/10 04:28:37;;;;;;;15.20;13.70;;;22.20;99.90;;;;;;2091479;28;20028;-69
2023/07/10 04:29:38;;;;;;;14.80;13.23;;;22.20;99.90;;;;;;2093037;28;20033;-69
2023/07/10 04:30:38;;;;;;;18.38;15.00;;;22.20;99.90;;;;;;2092354;28;20108;-69
2023/07/10 04:31:39;;;;;;;14.35;12.90;;;22.20;99.90;;;;;;2092015;28;20855;-70
2023/07/10 04:32:39;;;;;;;17.58;15.88;;;22.20;99.90;;;;;;2092388;28;20497;-70
2023/07/10 04:33:40;;;;;;;18.27;15.70;;;22.20;99.90;;;;;;2092219;28;20028;-70
2023/07/10 04:34:41;;;;;;;17.55;15.60;;;22.20;99.90;;;;;;2093188;28;20116;-69
2023/07/10 04:35:43;;;;;;;16.77;15.07;;;22.20;99.90;;;;;;2092124;28;20531;-69
2023/07/10 04:36:43;;;;;;;16.30;14.32;;;22.20;99.90;;;;;;2091706;28;20017;-69
2023/07/10 04:37:44;;;;;;;16.50;14.90;;;22.20;99.90;;;;;;2091166;28;20017;-69
2023/07/10 04:38:45;;;;;;;16.02;14.32;;;22.20;99.90;;;;;;2090737;28;20025;-69
2023/07/10 04:39:45;;;;;;;16.23;14.57;;;22.20;99.90;;;;;;2091847;28;20033;-70
2023/07/10 04:40:57;;;;;;;19.30;14.88;;;22.20;99.90;;;;;;2091225;28;20035;-69
2023/07/10 04:41:58;;;;;;;15.90;14.27;;;22.10;99.90;;;;;;2093026;28;20024;-69
2023/07/10 04:42:58;;;;;;;14.35;12.95;;;22.10;99.90;;;;;;2092029;28;20028;-71
2023/07/10 04:44:00;;;;;;;14.70;13.30;;;22.10;99.90;;;;;;2091290;28;20576;-70
2023/07/10 04:45:01;;;;;;;16.27;14.77;;;22.10;99.90;;;;;;2092437;28;20053;-69
2023/07/10 04:46:05;;;;;;;13.88;12.45;;;22.10;99.90;;;;;;2091473;28;20025;-69
2023/07/10 04:47:06;;;;;;;15.07;13.60;;;22.10;99.90;;;;;;2091355;28;20676;-69
2023/07/10 04:48:06;;;;;;;15.80;12.98;;;22.10;99.90;;;;;;2092597;28;20116;-70
2023/07/10 04:49:07;;;;;;;14.93;13.45;;;22.10;99.90;;;;;;2089789;28;20071;-70
2023/07/10 04:50:08;;;;;;;17.38;14.20;;;22.10;99.90;;;;;;2089758;28;20052;-70
2023/07/10 04:51:09;;;;;;;14.50;12.55;;;22.10;99.90;;;;;;2091787;28;20043;-70
2023/07/10 04:52:10;;;;;;;14.15;12.75;;;22.10;99.90;;;;;;2090892;28;20027;-70
2023/07/10 04:53:10;;;;;;;14.27;12.88;;;22.10;99.90;;;;;;2092231;28;20024;-71
2023/07/10 04:54:11;;;;;;;15.13;13.23;;;22.10;99.90;;;;;;2092842;28;20048;-70
2023/07/10 04:55:12;;;;;;;15.02;13.43;;;22.10;99.90;;;;;;2092140;28;20025;-70
2023/07/10 04:56:14;;;;;;;15.35;13.85;;;22.10;99.90;;;;;;2091702;28;20091;-70
2023/07/10 04:57:14;;;;;;;15.13;13.38;;;22.10;99.90;;;;;;2091603;28;20028;-70
2023/07/10 04:58:16;;;;;;;15.77;13.38;;;22.10;99.90;;;;;;2091600;28;20099;-70
2023/07/10 04:59:16;;;;;;;16.95;13.80;;;22.10;99.90;;;;;;2091286;28;20021;-70
2023/07/10 05:00:17;;;;;;;16.67;14.35;;;22.10;99.90;;;;;;2089649;28;20074;-70
2023/07/10 05:01:21;;;;;;;16.27;14.55;;;22.10;99.90;;;;;;2092260;28;20445;-70
2023/07/10 05:02:22;;;;;;;12.05;10.32;;;22.10;99.90;;;;;;2091568;28;20400;-70
2023/07/10 05:03:23;;;;;;;11.88;10.65;;;22.10;99.90;;;;;;2090490;28;20051;-70
2023/07/10 05:04:24;;;;;;;14.65;13.15;;;22.10;99.90;;;;;;2094851;28;20048;-70
2023/07/10 05:05:24;;;;;;;16.80;13.20;;;22.10;99.90;;;;;;2094787;28;20016;-70
2023/07/10 05:06:26;;;;;;;16.52;12.80;;;22.10;99.90;;;;;;2092948;28;20021;-70
2023/07/10 05:07:26;;;;;;;15.95;14.20;;;22.10;99.90;;;;;;2092082;28;20041;-70
2023/07/10 05:08:27;;;;;;;16.13;14.32;;;22.10;99.90;;;;;;2090521;28;20036;-70
2023/07/10 05:09:28;;;;;;;15.35;13.75;;;22.10;99.90;;;;;;2092860;28;20037;-70
2023/07/10 05:10:28;;;;;;;14.55;12.98;;;22.10;99.90;;;;;;2089618;28;20017;-70
2023/07/10 05:11:30;;;;;;;15.15;13.63;;;22.10;99.90;;;;;;2093107;28;20100;-70
2023/07/10 05:12:32;;;;;;;13.13;11.80;;;22.00;99.90;;;;;;2089971;28;20021;-70
2023/07/10 05:13:32;;;;;;;15.10;13.10;;;22.00;99.90;;;;;;2091172;28;20029;-69
2023/07/10 05:14:33;;;;;;;15.02;13.32;;;22.00;99.90;;;;;;2092084;28;20017;-69
2023/07/10 05:15:33;;;;;;;16.60;14.90;;;22.00;99.90;;;;;;2091621;28;20021;-69
2023/07/10 05:16:34;;;;;;;19.95;15.40;;;22.00;99.90;;;;;;2094074;28;20418;-69
2023/07/10 05:17:34;;;;;;;16.30;14.60;;;22.10;99.90;;;;;;2095482;28;20028;-69
2023/07/10 05:18:35;;;;;;;17.40;15.50;;;22.00;99.90;;;;;;2090138;28;20102;-69